createdAt,value
2023-01-08T00:00:20.280Z,93675.00
2023-01-08T00:02:49.814Z,93659.00
2023-01-08T00:05:19.336Z,93664.00
2023-01-08T00:07:46.420Z,93664.00
2023-01-08T00:10:13.323Z,93657.00
2023-01-08T00:12:40.408Z,93668.00
2023-01-08T00:15:10.531Z,93642.00
2023-01-08T00:17:37.466Z,93640.00
2023-01-08T00:20:04.995Z,93642.00
2023-01-08T00:22:34.505Z,93641.00
2023-01-08T00:25:01.398Z,93636.00
2023-01-08T00:27:28.353Z,93637.00
2023-01-08T00:29:55.336Z,93630.00
2023-01-08T00:32:22.278Z,93618.00
2023-01-08T00:34:49.103Z,93622.00
2023-01-08T00:37:20.348Z,93633.00
2023-01-08T00:39:47.283Z,93623.00
2023-01-08T00:42:14.261Z,93620.00
2023-01-08T00:44:43.700Z,93609.00
2023-01-08T00:47:14.571Z,93608.00
2023-01-08T00:49:41.856Z,93593.00
2023-01-08T00:52:12.677Z,93588.00
2023-01-08T00:54:39.593Z,93588.00
2023-01-08T00:57:06.464Z,93585.00
2023-01-08T00:59:55.506Z,93576.00
2023-01-08T01:02:22.460Z,93565.00
2023-01-08T01:04:49.363Z,93572.00
2023-01-08T01:07:16.310Z,93579.00
2023-01-08T01:09:43.201Z,93543.00
2023-01-08T01:12:13.247Z,93573.00
2023-01-08T01:14:40.569Z,93581.00
2023-01-08T01:17:07.415Z,93574.00
2023-01-08T01:19:34.308Z,93586.00
2023-01-08T01:22:03.453Z,93574.00
2023-01-08T01:24:30.393Z,93585.00
2023-01-08T01:26:57.669Z,93584.00
2023-01-08T01:29:25.312Z,93579.00
2023-01-08T01:31:52.221Z,93579.00
2023-01-08T01:34:19.064Z,93584.00
2023-01-08T01:36:45.993Z,93589.00
2023-01-08T01:39:15.577Z,93584.00
2023-01-08T01:41:48.043Z,93579.00
2023-01-08T01:44:43.632Z,93592.00
2023-01-08T01:47:19.534Z,93597.00
2023-01-08T01:50:04.631Z,93598.00
2023-01-08T01:52:35.187Z,93586.00
2023-01-08T01:55:07.615Z,93595.00
2023-01-08T01:57:40.115Z,93588.00
2023-01-08T02:00:09.721Z,93584.00
2023-01-08T02:02:39.269Z,93590.00
2023-01-08T02:05:09.085Z,93582.00
2023-01-08T02:08:07.815Z,93584.00
2023-01-08T02:10:57.569Z,93584.00
2023-01-08T02:13:30.211Z,93569.00
2023-01-08T02:16:14.195Z,93575.00
2023-01-08T02:18:56.491Z,93559.00
2023-01-08T02:21:49.385Z,93547.00
2023-01-08T02:24:41.498Z,93543.00
2023-01-08T02:27:13.408Z,93546.00
2023-01-08T02:29:43.995Z,93532.00
2023-01-08T02:32:13.418Z,93525.00
2023-01-08T02:34:40.690Z,93523.00
2023-01-08T02:37:09.958Z,93522.00
2023-01-08T02:39:55.985Z,93501.00
2023-01-08T02:42:55.155Z,93512.00
2023-01-08T02:45:44.172Z,93498.00
2023-01-08T02:48:40.192Z,93491.00
2023-01-08T02:51:30.486Z,93488.00
2023-01-08T02:54:08.029Z,93499.00
2023-01-08T02:56:39.099Z,93505.00
2023-01-08T02:59:11.744Z,93505.00
2023-01-08T03:01:41.145Z,93511.00
2023-01-08T03:04:19.967Z,93501.00
2023-01-08T03:06:52.069Z,93495.00
2023-01-08T03:09:19.304Z,93489.00
2023-01-08T03:12:00.911Z,93481.00
2023-01-08T03:14:41.695Z,93466.00
2023-01-08T03:17:31.758Z,93468.00
2023-01-08T03:20:07.041Z,93474.00
2023-01-08T03:22:41.066Z,93467.00
2023-01-08T03:25:09.520Z,93471.00
2023-01-08T03:27:47.210Z,93454.00
2023-01-08T03:30:16.770Z,93460.00
2023-01-08T03:32:47.128Z,93449.00
2023-01-08T03:35:23.311Z,93450.00
2023-01-08T03:37:59.638Z,93441.00
2023-01-08T03:40:39.202Z,93438.00
2023-01-08T03:43:08.390Z,93437.00
2023-01-08T03:45:38.897Z,93446.00
2023-01-08T03:48:11.862Z,93467.00
2023-01-08T03:50:40.279Z,93455.00
2023-01-08T03:53:09.614Z,93459.00
2023-01-08T03:55:41.307Z,93447.00
2023-01-08T03:58:10.546Z,93459.00
2023-01-08T04:00:37.723Z,93468.00
2023-01-08T04:03:09.745Z,93473.00
2023-01-08T04:05:39.084Z,93481.00
2023-01-08T04:08:08.516Z,93474.00
2023-01-08T04:10:35.583Z,93467.00
2023-01-08T04:13:02.495Z,93451.00
2023-01-08T04:15:29.616Z,93456.00
2023-01-08T04:17:59.008Z,93447.00
2023-01-08T04:20:25.913Z,93444.00
2023-01-08T04:22:52.823Z,93449.00
2023-01-08T04:25:19.797Z,93450.00
2023-01-08T04:27:46.674Z,93457.00
2023-01-08T04:30:18.533Z,93465.00
2023-01-08T04:32:47.842Z,93466.00
2023-01-08T04:35:19.379Z,93472.00
2023-01-08T04:37:46.153Z,93479.00
2023-01-08T04:40:13.136Z,93481.00
2023-01-08T04:42:42.284Z,93470.00
2023-01-08T04:45:12.147Z,93476.00
2023-01-08T04:47:43.929Z,93482.00
2023-01-08T04:50:13.741Z,93474.00
2023-01-08T04:52:42.797Z,93451.00
2023-01-08T04:55:09.881Z,93448.00
2023-01-08T04:57:36.794Z,93441.00
2023-01-08T05:00:07.158Z,93434.00
2023-01-08T05:02:39.698Z,93435.00
2023-01-08T05:05:07.423Z,93428.00
2023-01-08T05:07:39.442Z,93422.00
2023-01-08T05:10:10.461Z,93448.00
2023-01-08T05:12:37.413Z,93442.00
2023-01-08T05:15:04.768Z,93444.00
2023-01-08T05:17:36.188Z,93429.00
2023-01-08T05:20:05.722Z,93435.00
2023-01-08T05:22:32.801Z,93435.00
2023-01-08T05:24:59.755Z,93438.00
2023-01-08T05:27:29.010Z,93435.00
2023-01-08T05:29:55.838Z,93434.00
2023-01-08T05:32:22.717Z,93433.00
2023-01-08T05:34:50.436Z,93441.00
2023-01-08T05:37:17.310Z,93441.00
2023-01-08T05:39:46.354Z,93436.00
2023-01-08T05:42:15.539Z,93441.00
2023-01-08T05:44:44.690Z,93437.00
2023-01-08T05:47:11.654Z,93441.00
2023-01-08T05:49:40.535Z,93413.00
2023-01-08T05:52:09.863Z,93428.00
2023-01-08T05:54:36.765Z,93421.00
2023-01-08T05:57:06.175Z,93411.00
2023-01-08T05:59:40.096Z,93425.00
2023-01-08T06:02:08.530Z,93416.00
2023-01-08T06:04:35.542Z,93427.00
2023-01-08T06:07:05.414Z,93441.00
2023-01-08T06:09:32.271Z,93427.00
2023-01-08T06:11:59.255Z,93447.00
2023-01-08T06:14:28.338Z,93450.00
2023-01-08T06:16:57.467Z,93461.00
2023-01-08T06:19:24.380Z,93453.00
2023-01-08T06:21:53.498Z,93457.00
2023-01-08T06:24:22.554Z,93464.00
2023-01-08T06:26:49.412Z,93466.00
2023-01-08T06:29:16.571Z,93466.00
2023-01-08T06:31:43.473Z,93460.00
2023-01-08T06:34:11.539Z,93460.00
2023-01-08T06:36:40.646Z,93461.00
2023-01-08T06:39:11.007Z,93453.00
2023-01-08T06:41:37.863Z,93450.00
2023-01-08T06:44:05.140Z,93452.00
2023-01-08T06:46:32.269Z,93441.00
2023-01-08T06:48:59.202Z,93434.00
2023-01-08T06:51:26.004Z,93443.00
2023-01-08T06:53:52.841Z,93446.00
2023-01-08T06:56:21.783Z,93442.00
2023-01-08T06:58:51.076Z,93447.00
2023-01-08T07:01:18.362Z,93447.00
2023-01-08T07:03:45.540Z,93438.00
2023-01-08T07:06:18.949Z,93446.00
2023-01-08T07:08:46.057Z,93438.00
2023-01-08T07:11:13.789Z,93438.00
2023-01-08T07:13:40.758Z,93435.00
2023-01-08T07:16:15.814Z,93436.00
2023-01-08T07:18:49.930Z,93431.00
2023-01-08T07:21:21.020Z,93435.00
2023-01-08T07:23:51.876Z,93429.00
2023-01-08T07:26:20.831Z,93426.00
2023-01-08T07:28:47.671Z,93440.00
2023-01-08T07:31:17.121Z,93436.00
2023-01-08T07:33:44.075Z,93433.00
2023-01-08T07:36:13.484Z,93433.00
2023-01-08T07:38:43.195Z,93438.00
2023-01-08T07:41:10.158Z,93440.00
2023-01-08T07:43:39.286Z,93440.00
2023-01-08T07:46:08.735Z,93440.00
2023-01-08T07:48:35.885Z,93439.00
2023-01-08T07:51:09.925Z,93443.00
2023-01-08T07:53:42.088Z,93447.00
2023-01-08T07:56:12.724Z,93438.00
2023-01-08T07:58:39.797Z,93444.00
2023-01-08T08:01:11.231Z,93439.00
2023-01-08T08:03:43.577Z,93442.00
2023-01-08T08:06:11.132Z,93452.00
2023-01-08T08:08:38.092Z,93447.00
2023-01-08T08:11:05.261Z,93445.00
2023-01-08T08:13:32.227Z,93445.00
2023-01-08T08:16:05.656Z,93434.00
2023-01-08T08:18:32.627Z,93444.00
2023-01-08T08:20:59.646Z,93437.00
2023-01-08T08:23:26.595Z,93447.00
2023-01-08T08:25:57.977Z,93437.00
2023-01-08T08:28:24.819Z,93445.00
2023-01-08T08:30:56.401Z,93439.00
2023-01-08T08:33:27.959Z,93435.00
2023-01-08T08:35:54.871Z,93433.00
2023-01-08T08:38:25.049Z,93428.00
2023-01-08T08:40:54.623Z,93429.00
2023-01-08T08:43:21.519Z,93429.00
2023-01-08T08:45:48.469Z,93429.00
2023-01-08T08:48:16.864Z,93429.00
2023-01-08T08:50:46.166Z,93429.00
2023-01-08T08:53:13.045Z,93435.00
2023-01-08T08:55:39.975Z,93429.00
2023-01-08T08:58:12.503Z,93424.00
2023-01-08T09:00:41.257Z,93422.00
2023-01-08T09:03:15.755Z,93431.00
2023-01-08T09:05:48.018Z,93438.00
2023-01-08T09:08:17.403Z,93434.00
2023-01-08T09:10:46.741Z,93427.00
2023-01-08T09:13:17.401Z,93453.00
2023-01-08T09:15:44.567Z,93436.00
2023-01-08T09:18:11.525Z,93440.00
2023-01-08T09:20:38.532Z,93438.00
2023-01-08T09:23:06.977Z,93438.00
2023-01-08T09:25:38.488Z,93448.00
2023-01-08T09:28:08.368Z,93449.00
2023-01-08T09:30:35.524Z,93458.00
2023-01-08T09:33:04.590Z,93462.00
2023-01-08T09:35:37.034Z,93455.00
2023-01-08T09:38:03.980Z,93455.00
2023-01-08T09:41:04.928Z,93451.00
2023-01-08T09:43:37.213Z,93462.00
2023-01-08T09:46:08.609Z,93453.00
2023-01-08T09:48:38.623Z,93449.00
2023-01-08T09:51:20.059Z,93453.00
2023-01-08T09:53:55.234Z,93443.00
2023-01-08T09:56:24.642Z,93447.00
2023-01-08T09:59:00.774Z,93443.00
2023-01-08T10:01:36.313Z,93452.00
2023-01-08T10:04:20.376Z,93453.00
2023-01-08T10:07:08.030Z,93446.00
2023-01-08T10:09:36.977Z,93440.00
2023-01-08T10:12:14.875Z,93431.00
2023-01-08T10:14:49.801Z,93435.00
2023-01-08T10:18:01.569Z,93439.00
2023-01-08T10:20:32.834Z,93428.00
2023-01-08T10:23:23.494Z,93425.00
2023-01-08T10:26:00.622Z,93429.00
2023-01-08T10:28:35.639Z,93421.00
2023-01-08T10:31:20.597Z,93411.00
2023-01-08T10:33:49.865Z,93400.00
2023-01-08T10:36:22.945Z,93413.00
2023-01-08T10:39:00.300Z,93394.00
2023-01-08T10:41:28.370Z,93393.00
2023-01-08T10:44:05.347Z,93384.00
2023-01-08T10:46:51.592Z,93383.00
2023-01-08T10:49:44.062Z,93377.00
2023-01-08T10:52:34.050Z,93380.00
2023-01-08T10:55:29.993Z,93369.00
2023-01-08T10:58:03.601Z,93363.00
2023-01-08T11:00:38.878Z,93360.00
2023-01-08T11:03:33.586Z,93354.00
2023-01-08T11:06:19.703Z,93349.00
2023-01-08T11:08:59.950Z,93337.00
2023-01-08T11:11:39.880Z,93324.00
2023-01-08T11:14:22.437Z,93325.00
2023-01-08T11:16:49.774Z,93316.00
2023-01-08T11:19:28.835Z,93315.00
2023-01-08T11:22:05.728Z,93302.00
2023-01-08T11:24:39.958Z,93302.00
2023-01-08T11:27:14.483Z,93292.00
2023-01-08T11:29:55.573Z,93287.00
2023-01-08T11:32:47.765Z,93288.00
2023-01-08T11:35:31.594Z,93282.00
2023-01-08T11:38:02.484Z,93282.00
2023-01-08T11:40:41.482Z,93276.00
2023-01-08T11:43:46.685Z,93280.00
2023-01-08T11:46:56.164Z,93266.00
2023-01-08T11:49:33.901Z,93260.00
2023-01-08T11:52:25.783Z,93244.00
2023-01-08T11:55:32.490Z,93236.00
2023-01-08T11:58:28.602Z,93237.00
2023-01-08T12:01:07.228Z,93229.00
2023-01-08T12:04:15.628Z,93229.00
2023-01-08T12:06:51.651Z,93224.00
2023-01-08T12:09:43.445Z,93209.00
2023-01-08T12:12:19.303Z,93205.00
2023-01-08T12:15:02.651Z,93202.00
2023-01-08T12:18:14.547Z,93200.00
2023-01-08T12:21:20.294Z,93202.00
2023-01-08T12:24:19.299Z,93196.00
2023-01-08T12:26:57.969Z,93192.00
2023-01-08T12:30:05.421Z,93185.00
2023-01-08T12:32:38.787Z,93171.00
2023-01-08T12:35:21.180Z,93186.00
2023-01-08T12:37:57.538Z,93173.00
2023-01-08T12:40:35.565Z,93186.00
2023-01-08T12:43:12.208Z,93175.00
2023-01-08T12:45:48.805Z,93167.00
2023-01-08T12:48:22.652Z,93166.00
2023-01-08T12:51:24.365Z,93171.00
2023-01-08T12:54:18.587Z,93169.00
2023-01-08T12:56:56.122Z,93164.00
2023-01-08T12:59:50.552Z,93163.00
2023-01-08T13:02:44.978Z,93141.00
2023-01-08T13:05:41.949Z,93153.00
2023-01-08T13:08:39.475Z,93141.00
2023-01-08T13:11:09.952Z,93127.00
2023-01-08T13:13:45.054Z,93137.00
2023-01-08T13:16:11.947Z,93120.00
2023-01-08T13:18:39.501Z,93123.00
2023-01-08T13:21:11.982Z,93105.00
2023-01-08T13:23:44.438Z,93116.00
2023-01-08T13:26:14.029Z,93104.00
2023-01-08T13:28:46.110Z,93103.00
2023-01-08T13:31:21.952Z,93114.00
2023-01-08T13:33:52.732Z,93115.00
2023-01-08T13:36:25.249Z,93101.00
2023-01-08T13:39:10.478Z,93102.00
2023-01-08T13:41:42.925Z,93096.00
2023-01-08T13:44:36.380Z,93089.00
2023-01-08T13:47:24.459Z,93088.00
2023-01-08T13:49:54.004Z,93079.00
2023-01-08T13:52:47.680Z,93081.00
2023-01-08T13:55:18.603Z,93082.00
2023-01-08T13:58:14.429Z,93073.00
2023-01-08T14:00:41.296Z,93074.00
2023-01-08T14:03:35.437Z,93071.00
2023-01-08T14:06:21.586Z,93072.00
2023-01-08T14:09:03.954Z,93075.00
2023-01-08T14:11:42.598Z,93074.00
2023-01-08T14:14:18.953Z,93070.00
2023-01-08T14:16:48.289Z,93081.00
2023-01-08T14:19:29.065Z,93082.00
2023-01-08T14:21:58.614Z,93073.00
2023-01-08T14:24:30.612Z,93074.00
2023-01-08T14:26:59.594Z,93074.00
2023-01-08T14:29:36.600Z,93076.00
2023-01-08T14:32:06.030Z,93078.00
2023-01-08T14:34:42.699Z,93071.00
2023-01-08T14:37:14.722Z,93067.00
2023-01-08T14:39:44.291Z,93052.00
2023-01-08T14:42:37.276Z,93058.00
2023-01-08T14:45:12.519Z,93053.00
2023-01-08T14:47:52.244Z,93058.00
2023-01-08T14:50:31.398Z,93054.00
2023-01-08T14:53:06.997Z,93050.00
2023-01-08T14:55:40.903Z,93046.00
2023-01-08T14:58:20.640Z,93044.00
2023-01-08T15:00:57.130Z,93044.00
2023-01-08T15:03:34.940Z,93027.00
2023-01-08T15:06:05.330Z,93024.00
2023-01-08T15:08:46.958Z,93031.00
2023-01-08T15:11:19.886Z,93036.00
2023-01-08T15:13:52.037Z,93027.00
2023-01-08T15:16:42.620Z,93028.00
2023-01-08T15:19:18.983Z,93029.00
2023-01-08T15:21:58.560Z,93028.00
2023-01-08T15:24:39.304Z,93020.00
2023-01-08T15:27:18.220Z,93020.00
2023-01-08T15:29:59.803Z,93024.00
2023-01-08T15:32:39.815Z,93003.00
2023-01-08T15:35:18.684Z,93004.00
2023-01-08T15:37:50.222Z,93002.00
2023-01-08T15:40:17.056Z,93003.00
2023-01-08T15:43:02.962Z,93004.00
2023-01-08T15:45:33.841Z,92999.00
2023-01-08T15:48:01.117Z,92993.00
2023-01-08T15:50:28.882Z,92999.00
2023-01-08T15:52:57.476Z,92984.00
2023-01-08T15:55:25.177Z,92978.00
2023-01-08T15:57:56.106Z,92978.00
2023-01-08T16:00:23.227Z,92982.00
2023-01-08T16:02:59.482Z,92974.00
2023-01-08T16:05:32.946Z,92961.00
2023-01-08T16:08:00.135Z,92947.00
2023-01-08T16:10:29.493Z,92951.00
2023-01-08T16:12:59.929Z,92953.00
2023-01-08T16:15:31.714Z,92947.00
2023-01-08T16:18:00.275Z,92943.00
2023-01-08T16:20:29.727Z,92928.00
2023-01-08T16:23:01.156Z,92925.00
2023-01-08T16:25:31.526Z,92928.00
2023-01-08T16:28:04.491Z,92922.00
2023-01-08T16:30:31.476Z,92917.00
2023-01-08T16:32:58.453Z,92922.00
2023-01-08T16:35:25.368Z,92930.00
2023-01-08T16:37:55.875Z,92922.00
2023-01-08T16:40:22.870Z,92920.00
2023-01-08T16:42:52.020Z,92916.00
2023-01-08T16:45:21.064Z,92914.00
2023-01-08T16:47:50.428Z,92918.00
2023-01-08T16:50:17.425Z,92911.00
2023-01-08T16:52:44.443Z,92909.00
2023-01-08T16:55:11.349Z,92907.00
2023-01-08T16:57:42.922Z,92911.00
2023-01-08T17:00:10.447Z,92911.00
2023-01-08T17:02:39.988Z,92915.00
2023-01-08T17:05:07.382Z,92915.00
2023-01-08T17:07:36.459Z,92911.00
2023-01-08T17:10:04.633Z,92916.00
2023-01-08T17:12:33.817Z,92921.00
2023-01-08T17:15:00.796Z,92914.00
2023-01-08T17:17:27.666Z,92923.00
2023-01-08T17:19:57.024Z,92925.00
2023-01-08T17:22:23.984Z,92913.00
2023-01-08T17:24:55.385Z,92879.00
2023-01-08T17:27:22.427Z,92919.00
2023-01-08T17:29:51.583Z,92914.00
2023-01-08T17:32:21.871Z,92910.00
2023-01-08T17:34:50.858Z,92914.00
2023-01-08T17:37:17.772Z,92906.00
2023-01-08T17:39:50.895Z,92906.00
2023-01-08T17:42:27.454Z,92898.00
2023-01-08T17:45:05.657Z,92898.00
2023-01-08T17:47:37.268Z,92895.00
2023-01-08T17:50:05.848Z,92888.00
2023-01-08T17:52:39.319Z,92878.00
2023-01-08T17:55:09.843Z,92879.00
2023-01-08T17:57:36.805Z,92869.00
2023-01-08T18:00:04.639Z,92865.00
2023-01-08T18:02:31.605Z,92869.00
2023-01-08T18:05:01.550Z,92857.00
2023-01-08T18:07:28.415Z,92855.00
2023-01-08T18:09:57.874Z,92857.00
2023-01-08T18:12:24.767Z,92858.00
2023-01-08T18:14:51.876Z,92850.00
2023-01-08T18:17:21.403Z,92830.00
2023-01-08T18:19:48.790Z,92828.00
2023-01-08T18:22:15.952Z,92827.00
2023-01-08T18:24:45.033Z,92815.00
2023-01-08T18:27:11.940Z,92814.00
2023-01-08T18:29:41.850Z,92816.00
2023-01-08T18:32:08.726Z,92821.00
2023-01-08T18:34:39.012Z,92811.00
2023-01-08T18:37:08.151Z,92800.00
2023-01-08T18:39:37.558Z,92805.00
2023-01-08T18:42:26.217Z,92797.00
2023-01-08T18:44:57.763Z,92795.00
2023-01-08T18:47:26.173Z,92788.00
2023-01-08T18:49:58.517Z,92777.00
2023-01-08T18:52:25.732Z,92777.00
2023-01-08T18:54:53.622Z,92765.00
2023-01-08T18:57:20.571Z,92761.00
2023-01-08T18:59:49.998Z,92755.00
2023-01-08T19:02:29.370Z,92754.00
2023-01-08T19:04:56.424Z,92748.00
2023-01-08T19:07:26.833Z,92732.00
2023-01-08T19:09:53.758Z,92741.00
2023-01-08T19:12:28.054Z,92733.00
2023-01-08T19:14:55.059Z,92723.00
2023-01-08T19:17:21.996Z,92723.00
2023-01-08T19:19:51.098Z,92717.00
2023-01-08T19:22:22.448Z,92722.00
2023-01-08T19:24:49.319Z,92716.00
2023-01-08T19:27:16.235Z,92705.00
2023-01-08T19:29:43.197Z,92713.00
2023-01-08T19:32:10.183Z,92711.00
2023-01-08T19:34:37.168Z,92707.00
2023-01-08T19:37:09.187Z,92701.00
2023-01-08T19:39:36.620Z,92692.00
2023-01-08T19:42:22.422Z,92702.00
2023-01-08T19:44:49.337Z,92689.00
2023-01-08T19:47:16.312Z,92686.00
2023-01-08T19:49:47.781Z,92670.00
2023-01-08T19:52:18.147Z,92668.00
2023-01-08T19:54:45.369Z,92666.00
2023-01-08T19:57:14.257Z,92665.00
2023-01-08T19:59:43.771Z,92661.00
2023-01-08T20:02:11.236Z,92666.00
2023-01-08T20:04:41.467Z,92654.00
2023-01-08T20:07:08.369Z,92656.00
2023-01-08T20:09:35.494Z,92659.00
2023-01-08T20:12:06.202Z,92659.00
2023-01-08T20:14:34.571Z,92665.00
2023-01-08T20:17:02.030Z,92644.00
2023-01-08T20:19:29.057Z,92672.00
2023-01-08T20:21:58.921Z,92660.00
2023-01-08T20:24:29.764Z,92656.00
2023-01-08T20:26:56.711Z,92651.00
2023-01-08T20:29:24.609Z,92652.00
2023-01-08T20:31:56.842Z,92656.00
2023-01-08T20:34:24.814Z,92658.00
2023-01-08T20:36:53.373Z,92665.00
2023-01-08T20:39:25.033Z,92660.00
2023-01-08T20:42:01.183Z,92646.00
2023-01-08T20:44:34.207Z,92653.00
2023-01-08T20:47:05.381Z,92642.00
2023-01-08T20:49:32.375Z,92627.00
2023-01-08T20:52:01.692Z,92633.00
2023-01-08T20:54:31.786Z,92628.00
2023-01-08T20:57:00.231Z,92625.00
2023-01-08T20:59:28.279Z,92629.00
2023-01-08T21:01:55.522Z,92639.00
2023-01-08T21:04:25.079Z,92621.00
2023-01-08T21:06:54.354Z,92629.00
2023-01-08T21:09:23.401Z,92630.00
2023-01-08T21:11:52.914Z,92617.00
2023-01-08T21:14:22.165Z,92607.00
2023-01-08T21:16:51.639Z,92607.00
2023-01-08T21:19:23.256Z,92611.00
2023-01-08T21:21:52.306Z,92612.00
2023-01-08T21:24:22.247Z,92606.00
2023-01-08T21:26:49.101Z,92619.00
2023-01-08T21:29:17.530Z,92610.00
2023-01-08T21:31:44.909Z,92604.00
2023-01-08T21:34:12.071Z,92602.00
2023-01-08T21:36:39.337Z,92594.00
2023-01-08T21:39:06.692Z,92593.00
2023-01-08T21:41:55.210Z,92598.00
2023-01-08T21:44:43.161Z,92596.00
2023-01-08T21:47:17.980Z,92598.00
2023-01-08T21:49:46.261Z,92605.00
2023-01-08T21:52:32.182Z,92602.00
2023-01-08T21:55:01.806Z,92602.00
2023-01-08T21:57:28.956Z,92594.00
2023-01-08T21:59:58.384Z,92596.00
2023-01-08T22:02:26.090Z,92596.00
2023-01-08T22:04:56.604Z,92606.00
2023-01-08T22:07:25.279Z,92605.00
2023-01-08T22:09:52.519Z,92602.00
2023-01-08T22:12:22.694Z,92614.00
2023-01-08T22:14:53.168Z,92623.00
2023-01-08T22:17:20.427Z,92618.00
2023-01-08T22:19:47.327Z,92618.00
2023-01-08T22:22:14.374Z,92616.00
2023-01-08T22:24:41.428Z,92599.00
2023-01-08T22:27:13.356Z,92598.00
2023-01-08T22:29:45.352Z,92596.00
2023-01-08T22:32:12.259Z,92595.00
2023-01-08T22:34:41.840Z,92592.00
2023-01-08T22:37:11.801Z,92595.00
2023-01-08T22:39:38.730Z,92591.00
2023-01-08T22:42:08.212Z,92584.00
2023-01-08T22:44:35.413Z,92578.00
2023-01-08T22:47:09.897Z,92592.00
2023-01-08T22:49:38.234Z,92586.00
2023-01-08T22:52:11.612Z,92587.00
2023-01-08T22:54:43.038Z,92593.00
2023-01-08T22:57:12.782Z,92595.00
2023-01-08T22:59:39.809Z,92599.00
2023-01-08T23:02:08.803Z,92585.00
2023-01-08T23:04:35.721Z,92581.00
2023-01-08T23:07:02.649Z,92575.00
2023-01-08T23:09:29.598Z,92576.00
2023-01-08T23:11:58.544Z,92569.00
2023-01-08T23:14:30.449Z,92572.00
2023-01-08T23:17:00.351Z,92562.00
2023-01-08T23:19:27.304Z,92565.00
2023-01-08T23:21:56.458Z,92570.00
2023-01-08T23:24:24.829Z,92557.00
2023-01-08T23:26:51.695Z,92550.00
2023-01-08T23:29:18.688Z,92564.00
2023-01-08T23:31:48.161Z,92556.00
2023-01-08T23:34:17.905Z,92549.00
2023-01-08T23:36:46.896Z,92549.00
2023-01-08T23:39:15.936Z,92556.00
2023-01-08T23:41:45.300Z,92543.00
2023-01-08T23:44:15.307Z,92548.00
2023-01-08T23:46:44.387Z,92542.00
2023-01-08T23:49:14.567Z,92549.00
2023-01-08T23:51:43.802Z,92541.00
2023-01-08T23:54:12.207Z,92559.00
2023-01-08T23:56:43.996Z,92550.00
2023-01-08T23:59:11.225Z,92538.00
